sensor_id;sensor_type;location;lat;lon;timestamp;temperature;humidity
13898;DHT22;7019;50.766;4.474;2023-04-15T00:02:14;7.40;99.90
13898;DHT22;7019;50.766;4.474;2023-04-15T00:04:43;7.50;99.90
13898;DHT22;7019;50.766;4.474;2023-04-15T00:07:11;7.50;99.90
13898;DHT22;7019;50.766;4.474;2023-04-15T00:09:40;7.40;99.90
13898;DHT22;7019;50.766;4.474;2023-04-15T00:12:07;7.50;99.90
13898;DHT22;7019;50.766;4.474;2023-04-15T00:14:34;7.40;99.90
13898;DHT22;7019;50.766;4.474;2023-04-15T00:17:02;7.40;99.90
13898;DHT22;7019;50.766;4.474;2023-04-15T00:19:30;7.40;99.90
13898;DHT22;7019;50.766;4.474;2023-04-15T00:21:57;7.40;99.90
13898;DHT22;7019;50.766;4.474;2023-04-15T00:24:25;7.40;99.90
13898;DHT22;7019;50.766;4.474;2023-04-15T00:26:52;7.40;99.90
13898;DHT22;7019;50.766;4.474;2023-04-15T00:29:19;7.40;99.90
13898;DHT22;7019;50.766;4.474;2023-04-15T00:31:46;7.40;99.90
13898;DHT22;7019;50.766;4.474;2023-04-15T00:34:13;7.40;99.90
13898;DHT22;7019;50.766;4.474;2023-04-15T00:36:41;7.40;99.90
13898;DHT22;7019;50.766;4.474;2023-04-15T00:39:08;7.40;99.90
13898;DHT22;7019;50.766;4.474;2023-04-15T00:41:36;7.50;99.90
13898;DHT22;7019;50.766;4.474;2023-04-15T00:44:05;7.50;99.90
13898;DHT22;7019;50.766;4.474;2023-04-15T00:46:35;7.50;99.90
13898;DHT22;7019;50.766;4.474;2023-04-15T00:49:03;7.50;99.90
13898;DHT22;7019;50.766;4.474;2023-04-15T00:51:30;7.50;99.90
13898;DHT22;7019;50.766;4.474;2023-04-15T00:54:01;7.50;99.90
13898;DHT22;7019;50.766;4.474;2023-04-15T00:56:28;7.50;99.90
13898;DHT22;7019;50.766;4.474;2023-04-15T00:58:58;7.60;99.90
13898;DHT22;7019;50.766;4.474;2023-04-15T01:01:25;7.60;99.90
13898;DHT22;7019;50.766;4.474;2023-04-15T01:03:55;7.50;99.90
13898;DHT22;7019;50.766;4.474;2023-04-15T01:06:23;7.40;99.90
13898;DHT22;7019;50.766;4.474;2023-04-15T01:08:52;7.40;99.90
13898;DHT22;7019;50.766;4.474;2023-04-15T01:11:19;7.40;99.90
13898;DHT22;7019;50.766;4.474;2023-04-15T01:13:47;7.40;99.90
13898;DHT22;7019;50.766;4.474;2023-04-15T01:16:15;7.40;99.90
13898;DHT22;7019;50.766;4.474;2023-04-15T01:18:42;7.40;99.90
13898;DHT22;7019;50.766;4.474;2023-04-15T01:21:09;7.40;99.90
13898;DHT22;7019;50.766;4.474;2023-04-15T01:23:38;7.40;99.90
13898;DHT22;7019;50.766;4.474;2023-04-15T01:26:07;7.40;99.90
13898;DHT22;7019;50.766;4.474;2023-04-15T01:28:34;7.40;99.90
13898;DHT22;7019;50.766;4.474;2023-04-15T01:31:06;7.40;99.90
13898;DHT22;7019;50.766;4.474;2023-04-15T01:33:33;7.40;99.90
13898;DHT22;7019;50.766;4.474;2023-04-15T01:36:01;7.40;99.90
13898;DHT22;7019;50.766;4.474;2023-04-15T01:38:29;7.40;99.90
13898;DHT22;7019;50.766;4.474;2023-04-15T01:40:56;7.40;99.90
13898;DHT22;7019;50.766;4.474;2023-04-15T01:43:25;7.40;99.90
13898;DHT22;7019;50.766;4.474;2023-04-15T01:45:52;7.40;99.90
13898;DHT22;7019;50.766;4.474;2023-04-15T01:48:20;7.40;99.90
13898;DHT22;7019;50.766;4.474;2023-04-15T01:50:48;7.40;99.90
13898;DHT22;7019;50.766;4.474;2023-04-15T01:53:15;7.40;99.90
13898;DHT22;7019;50.766;4.474;2023-04-15T01:55:42;7.40;99.90
13898;DHT22;7019;50.766;4.474;2023-04-15T01:58:09;7.40;99.90
13898;DHT22;7019;50.766;4.474;2023-04-15T02:00:37;7.40;99.90
13898;DHT22;7019;50.766;4.474;2023-04-15T02:03:04;7.40;99.90
13898;DHT22;7019;50.766;4.474;2023-04-15T02:05:32;7.40;99.90
13898;DHT22;7019;50.766;4.474;2023-04-15T02:07:59;7.50;99.90
13898;DHT22;7019;50.766;4.474;2023-04-15T02:10:26;7.50;99.90
13898;DHT22;7019;50.766;4.474;2023-04-15T02:12:53;7.50;99.90
13898;DHT22;7019;50.766;4.474;2023-04-15T02:15:20;7.40;99.90
13898;DHT22;7019;50.766;4.474;2023-04-15T02:17:48;7.40;99.90
13898;DHT22;7019;50.766;4.474;2023-04-15T02:20:18;7.40;99.90
13898;DHT22;7019;50.766;4.474;2023-04-15T02:22:45;7.50;99.90
13898;DHT22;7019;50.766;4.474;2023-04-15T02:25:13;7.40;99.90
13898;DHT22;7019;50.766;4.474;2023-04-15T02:27:41;7.40;99.90
13898;DHT22;7019;50.766;4.474;2023-04-15T02:30:09;7.40;99.90
13898;DHT22;7019;50.766;4.474;2023-04-15T02:32:36;7.50;99.90
13898;DHT22;7019;50.766;4.474;2023-04-15T02:35:06;7.50;99.90
13898;DHT22;7019;50.766;4.474;2023-04-15T02:37:35;7.40;99.90
13898;DHT22;7019;50.766;4.474;2023-04-15T02:40:07;7.50;99.90
13898;DHT22;7019;50.766;4.474;2023-04-15T02:42:36;7.40;99.90
13898;DHT22;7019;50.766;4.474;2023-04-15T02:45:04;7.50;99.90
13898;DHT22;7019;50.766;4.474;2023-04-15T02:47:32;7.50;99.90
13898;DHT22;7019;50.766;4.474;2023-04-15T02:50:01;7.50;99.90
13898;DHT22;7019;50.766;4.474;2023-04-15T02:52:29;7.50;99.90
13898;DHT22;7019;50.766;4.474;2023-04-15T02:54:57;7.50;99.90
13898;DHT22;7019;50.766;4.474;2023-04-15T02:57:25;7.50;99.90
13898;DHT22;7019;50.766;4.474;2023-04-15T02:59:54;7.50;99.90
13898;DHT22;7019;50.766;4.474;2023-04-15T03:02:21;7.50;99.90
13898;DHT22;7019;50.766;4.474;2023-04-15T03:04:48;7.50;99.90
13898;DHT22;7019;50.766;4.474;2023-04-15T03:07:16;7.50;99.90
13898;DHT22;7019;50.766;4.474;2023-04-15T03:09:44;7.50;99.90
13898;DHT22;7019;50.766;4.474;2023-04-15T03:12:12;7.50;99.90
13898;DHT22;7019;50.766;4.474;2023-04-15T03:14:39;7.50;99.90
13898;DHT22;7019;50.766;4.474;2023-04-15T03:17:06;7.50;99.90
13898;DHT22;7019;50.766;4.474;2023-04-15T03:19:33;7.50;99.90
13898;DHT22;7019;50.766;4.474;2023-04-15T03:22:01;7.50;99.90
13898;DHT22;7019;50.766;4.474;2023-04-15T03:24:28;7.50;99.90
13898;DHT22;7019;50.766;4.474;2023-04-15T03:26:56;7.60;99.90
13898;DHT22;7019;50.766;4.474;2023-04-15T03:29:24;7.60;99.90
13898;DHT22;7019;50.766;4.474;2023-04-15T03:31:51;7.60;99.90
13898;DHT22;7019;50.766;4.474;2023-04-15T03:34:19;7.60;99.90
13898;DHT22;7019;50.766;4.474;2023-04-15T03:36:46;7.60;99.90
13898;DHT22;7019;50.766;4.474;2023-04-15T03:39:13;7.60;99.90
13898;DHT22;7019;50.766;4.474;2023-04-15T03:41:40;7.60;99.90
13898;DHT22;7019;50.766;4.474;2023-04-15T03:44:08;7.60;99.90
13898;DHT22;7019;50.766;4.474;2023-04-15T03:46:35;7.60;99.90
13898;DHT22;7019;50.766;4.474;2023-04-15T03:49:03;7.60;99.90
13898;DHT22;7019;50.766;4.474;2023-04-15T03:51:30;7.70;99.90
13898;DHT22;7019;50.766;4.474;2023-04-15T03:53:57;7.70;99.90
13898;DHT22;7019;50.766;4.474;2023-04-15T03:56:24;7.80;99.90
13898;DHT22;7019;50.766;4.474;2023-04-15T03:58:51;7.80;99.90
13898;DHT22;7019;50.766;4.474;2023-04-15T04:01:20;7.80;99.90
13898;DHT22;7019;50.766;4.474;2023-04-15T04:03:47;7.70;99.90
13898;DHT22;7019;50.766;4.474;2023-04-15T04:06:14;7.70;99.90
13898;DHT22;7019;50.766;4.474;2023-04-15T04:08:41;7.70;99.90
13898;DHT22;7019;50.766;4.474;2023-04-15T04:11:08;7.70;99.90
13898;DHT22;7019;50.766;4.474;2023-04-15T04:13:35;7.70;99.90
13898;DHT22;7019;50.766;4.474;2023-04-15T04:16:02;7.70;99.90
13898;DHT22;7019;50.766;4.474;2023-04-15T04:18:31;7.70;99.90
13898;DHT22;7019;50.766;4.474;2023-04-15T04:20:59;7.70;99.90
13898;DHT22;7019;50.766;4.474;2023-04-15T04:23:26;7.70;99.90
13898;DHT22;7019;50.766;4.474;2023-04-15T04:25:53;7.70;99.90
13898;DHT22;7019;50.766;4.474;2023-04-15T04:28:21;7.70;99.90
13898;DHT22;7019;50.766;4.474;2023-04-15T04:30:48;7.70;99.90
13898;DHT22;7019;50.766;4.474;2023-04-15T04:33:15;7.60;99.90
13898;DHT22;7019;50.766;4.474;2023-04-15T04:35:43;7.60;99.90
13898;DHT22;7019;50.766;4.474;2023-04-15T04:38:10;7.60;99.90
13898;DHT22;7019;50.766;4.474;2023-04-15T04:40:37;7.60;99.90
13898;DHT22;7019;50.766;4.474;2023-04-15T04:43:04;7.60;99.90
13898;DHT22;7019;50.766;4.474;2023-04-15T04:45:31;7.60;99.90
13898;DHT22;7019;50.766;4.474;2023-04-15T04:47:58;7.50;99.90
13898;DHT22;7019;50.766;4.474;2023-04-15T04:50:25;7.60;99.90
13898;DHT22;7019;50.766;4.474;2023-04-15T04:52:54;7.50;99.90
13898;DHT22;7019;50.766;4.474;2023-04-15T04:55:21;7.50;99.90
13898;DHT22;7019;50.766;4.474;2023-04-15T04:57:48;7.50;99.90
13898;DHT22;7019;50.766;4.474;2023-04-15T05:00:15;7.50;99.90
13898;DHT22;7019;50.766;4.474;2023-04-15T05:02:42;7.50;99.90
13898;DHT22;7019;50.766;4.474;2023-04-15T05:05:10;7.40;99.90
13898;DHT22;7019;50.766;4.474;2023-04-15T05:07:38;7.40;99.90
13898;DHT22;7019;50.766;4.474;2023-04-15T05:10:08;7.40;99.90
13898;DHT22;7019;50.766;4.474;2023-04-15T05:12:35;7.50;99.90
13898;DHT22;7019;50.766;4.474;2023-04-15T05:15:03;7.40;99.90
13898;DHT22;7019;50.766;4.474;2023-04-15T05:17:30;7.40;99.90
13898;DHT22;7019;50.766;4.474;2023-04-15T05:19:59;7.40;99.90
13898;DHT22;7019;50.766;4.474;2023-04-15T05:22:26;7.40;99.90
13898;DHT22;7019;50.766;4.474;2023-04-15T05:24:53;7.40;99.90
13898;DHT22;7019;50.766;4.474;2023-04-15T05:27:22;7.40;99.90
13898;DHT22;7019;50.766;4.474;2023-04-15T05:29:49;7.50;99.90
13898;DHT22;7019;50.766;4.474;2023-04-15T05:32:16;7.50;99.90
13898;DHT22;7019;50.766;4.474;2023-04-15T05:34:43;7.50;99.90
13898;DHT22;7019;50.766;4.474;2023-04-15T05:37:11;7.50;99.90
13898;DHT22;7019;50.766;4.474;2023-04-15T05:39:38;7.50;99.90
13898;DHT22;7019;50.766;4.474;2023-04-15T05:42:05;7.50;99.90
13898;DHT22;7019;50.766;4.474;2023-04-15T05:44:33;7.50;99.90
13898;DHT22;7019;50.766;4.474;2023-04-15T05:47:00;7.60;99.90
13898;DHT22;7019;50.766;4.474;2023-04-15T05:49:28;7.60;99.90
13898;DHT22;7019;50.766;4.474;2023-04-15T05:51:55;7.60;99.90
13898;DHT22;7019;50.766;4.474;2023-04-15T05:54:22;7.70;99.90
13898;DHT22;7019;50.766;4.474;2023-04-15T05:56:49;7.80;99.90
13898;DHT22;7019;50.766;4.474;2023-04-15T05:59:16;7.80;99.90
13898;DHT22;7019;50.766;4.474;2023-04-15T06:01:45;7.90;99.90
13898;DHT22;7019;50.766;4.474;2023-04-15T06:04:12;7.90;99.90
13898;DHT22;7019;50.766;4.474;2023-04-15T06:06:39;7.90;99.90
13898;DHT22;7019;50.766;4.474;2023-04-15T06:09:06;7.90;99.90
13898;DHT22;7019;50.766;4.474;2023-04-15T06:11:33;7.90;99.90
13898;DHT22;7019;50.766;4.474;2023-04-15T06:14:00;8.00;99.90
13898;DHT22;7019;50.766;4.474;2023-04-15T06:16:27;8.00;99.90
13898;DHT22;7019;50.766;4.474;2023-04-15T06:18:56;8.10;99.90
13898;DHT22;7019;50.766;4.474;2023-04-15T06:21:23;8.20;99.90
13898;DHT22;7019;50.766;4.474;2023-04-15T06:23:50;8.20;99.90
13898;DHT22;7019;50.766;4.474;2023-04-15T06:26:17;8.40;99.90
13898;DHT22;7019;50.766;4.474;2023-04-15T06:28:44;8.50;99.90
13898;DHT22;7019;50.766;4.474;2023-04-15T06:31:11;8.60;99.90
13898;DHT22;7019;50.766;4.474;2023-04-15T06:33:38;8.70;99.90
13898;DHT22;7019;50.766;4.474;2023-04-15T06:36:07;8.80;99.90
13898;DHT22;7019;50.766;4.474;2023-04-15T06:38:34;8.90;99.90
13898;DHT22;7019;50.766;4.474;2023-04-15T06:41:02;9.10;99.90
13898;DHT22;7019;50.766;4.474;2023-04-15T06:43:29;9.20;99.90
13898;DHT22;7019;50.766;4.474;2023-04-15T06:45:56;9.20;99.90
13898;DHT22;7019;50.766;4.474;2023-04-15T06:48:23;9.20;99.90
13898;DHT22;7019;50.766;4.474;2023-04-15T06:50:51;9.30;99.90
13898;DHT22;7019;50.766;4.474;2023-04-15T06:53:19;9.30;99.90
13898;DHT22;7019;50.766;4.474;2023-04-15T06:55:46;9.30;99.90
13898;DHT22;7019;50.766;4.474;2023-04-15T06:58:13;9.40;99.90
13898;DHT22;7019;50.766;4.474;2023-04-15T07:00:41;9.50;99.90
13898;DHT22;7019;50.766;4.474;2023-04-15T07:03:08;9.60;99.90
13898;DHT22;7019;50.766;4.474;2023-04-15T07:05:35;9.80;99.90
13898;DHT22;7019;50.766;4.474;2023-04-15T07:08:03;10.10;99.90
13898;DHT22;7019;50.766;4.474;2023-04-15T07:10:32;10.40;99.90
13898;DHT22;7019;50.766;4.474;2023-04-15T07:12:59;10.60;99.90
13898;DHT22;7019;50.766;4.474;2023-04-15T07:15:27;11.10;99.90
13898;DHT22;7019;50.766;4.474;2023-04-15T07:17:54;11.70;99.90
13898;DHT22;7019;50.766;4.474;2023-04-15T07:20:21;12.20;99.90
13898;DHT22;7019;50.766;4.474;2023-04-15T07:22:48;12.80;99.90
13898;DHT22;7019;50.766;4.474;2023-04-15T07:25:15;13.30;99.90
13898;DHT22;7019;50.766;4.474;2023-04-15T07:27:45;13.90;99.90
13898;DHT22;7019;50.766;4.474;2023-04-15T07:30:12;14.60;99.90
13898;DHT22;7019;50.766;4.474;2023-04-15T07:32:39;15.50;99.90
13898;DHT22;7019;50.766;4.474;2023-04-15T07:35:08;16.10;99.90
13898;DHT22;7019;50.766;4.474;2023-04-15T07:37:35;16.60;99.90
13898;DHT22;7019;50.766;4.474;2023-04-15T07:40:02;17.30;99.90
13898;DHT22;7019;50.766;4.474;2023-04-15T07:42:31;17.80;99.90
13898;DHT22;7019;50.766;4.474;2023-04-15T07:45:00;17.60;99.90
13898;DHT22;7019;50.766;4.474;2023-04-15T07:47:27;17.60;99.90
13898;DHT22;7019;50.766;4.474;2023-04-15T07:49:55;17.50;99.90
13898;DHT22;7019;50.766;4.474;2023-04-15T07:52:22;17.50;99.90
13898;DHT22;7019;50.766;4.474;2023-04-15T07:54:49;16.90;99.90
13898;DHT22;7019;50.766;4.474;2023-04-15T07:57:16;16.50;99.90
13898;DHT22;7019;50.766;4.474;2023-04-15T07:59:43;16.20;99.90
13898;DHT22;7019;50.766;4.474;2023-04-15T08:02:11;16.80;99.90
13898;DHT22;7019;50.766;4.474;2023-04-15T08:04:38;17.50;99.90
13898;DHT22;7019;50.766;4.474;2023-04-15T08:07:05;17.00;99.90
13898;DHT22;7019;50.766;4.474;2023-04-15T08:09:32;16.50;99.90
13898;DHT22;7019;50.766;4.474;2023-04-15T08:12:00;16.10;99.90
13898;DHT22;7019;50.766;4.474;2023-04-15T08:14:27;15.60;99.90
13898;DHT22;7019;50.766;4.474;2023-04-15T08:16:55;15.20;99.90
13898;DHT22;7019;50.766;4.474;2023-04-15T08:19:23;15.10;99.90
13898;DHT22;7019;50.766;4.474;2023-04-15T08:21:50;15.20;99.90
13898;DHT22;7019;50.766;4.474;2023-04-15T08:24:17;15.10;99.90
13898;DHT22;7019;50.766;4.474;2023-04-15T08:26:44;14.90;99.90
13898;DHT22;7019;50.766;4.474;2023-04-15T08:29:12;14.90;99.90
13898;DHT22;7019;50.766;4.474;2023-04-15T08:31:39;15.00;99.90
13898;DHT22;7019;50.766;4.474;2023-04-15T08:34:07;14.80;99.90
13898;DHT22;7019;50.766;4.474;2023-04-15T08:36:35;15.10;99.90
13898;DHT22;7019;50.766;4.474;2023-04-15T08:39:02;15.30;99.90
13898;DHT22;7019;50.766;4.474;2023-04-15T08:41:36;15.50;99.90
13898;DHT22;7019;50.766;4.474;2023-04-15T08:44:05;16.00;99.90
13898;DHT22;7019;50.766;4.474;2023-04-15T08:46:33;16.50;99.90
13898;DHT22;7019;50.766;4.474;2023-04-15T08:49:02;16.80;99.90
13898;DHT22;7019;50.766;4.474;2023-04-15T08:51:31;16.50;99.90
13898;DHT22;7019;50.766;4.474;2023-04-15T08:54:01;16.40;99.90
13898;DHT22;7019;50.766;4.474;2023-04-15T08:56:30;16.70;99.90
13898;DHT22;7019;50.766;4.474;2023-04-15T08:58:58;16.90;99.90
13898;DHT22;7019;50.766;4.474;2023-04-15T09:01:26;16.80;99.90
13898;DHT22;7019;50.766;4.474;2023-04-15T09:03:53;16.50;99.90
13898;DHT22;7019;50.766;4.474;2023-04-15T09:06:20;16.50;99.90
13898;DHT22;7019;50.766;4.474;2023-04-15T09:08:47;16.70;99.90
13898;DHT22;7019;50.766;4.474;2023-04-15T09:11:16;16.80;99.90
13898;DHT22;7019;50.766;4.474;2023-04-15T09:13:44;17.00;99.90
13898;DHT22;7019;50.766;4.474;2023-04-15T09:16:12;17.40;99.90
13898;DHT22;7019;50.766;4.474;2023-04-15T09:18:40;17.90;99.90
13898;DHT22;7019;50.766;4.474;2023-04-15T09:21:08;17.70;99.90
13898;DHT22;7019;50.766;4.474;2023-04-15T09:23:37;17.60;99.90
13898;DHT22;7019;50.766;4.474;2023-04-15T09:26:05;17.60;99.80
13898;DHT22;7019;50.766;4.474;2023-04-15T09:28:40;17.90;99.90
13898;DHT22;7019;50.766;4.474;2023-04-15T09:31:08;18.10;98.10
13898;DHT22;7019;50.766;4.474;2023-04-15T09:33:53;17.80;97.60
13898;DHT22;7019;50.766;4.474;2023-04-15T09:36:21;18.20;98.60
13898;DHT22;7019;50.766;4.474;2023-04-15T09:38:54;17.80;98.20
13898;DHT22;7019;50.766;4.474;2023-04-15T09:41:22;18.20;98.60
13898;DHT22;7019;50.766;4.474;2023-04-15T09:43:51;18.00;96.90
13898;DHT22;7019;50.766;4.474;2023-04-15T09:46:18;17.90;96.30
13898;DHT22;7019;50.766;4.474;2023-04-15T09:48:45;17.90;96.90
13898;DHT22;7019;50.766;4.474;2023-04-15T09:51:12;17.60;96.10
13898;DHT22;7019;50.766;4.474;2023-04-15T09:53:40;17.10;96.20
13898;DHT22;7019;50.766;4.474;2023-04-15T09:56:07;17.20;96.40
13898;DHT22;7019;50.766;4.474;2023-04-15T09:58:35;17.30;95.80
13898;DHT22;7019;50.766;4.474;2023-04-15T10:01:05;17.10;96.90
13898;DHT22;7019;50.766;4.474;2023-04-15T10:03:34;17.60;96.80
13898;DHT22;7019;50.766;4.474;2023-04-15T10:06:02;16.80;96.50
13898;DHT22;7019;50.766;4.474;2023-04-15T10:08:31;16.80;97.40
13898;DHT22;7019;50.766;4.474;2023-04-15T10:11:01;16.90;98.90
13898;DHT22;7019;50.766;4.474;2023-04-15T10:13:29;17.10;98.20
13898;DHT22;7019;50.766;4.474;2023-04-15T10:16:06;17.20;97.90
13898;DHT22;7019;50.766;4.474;2023-04-15T10:18:37;17.20;98.60
13898;DHT22;7019;50.766;4.474;2023-04-15T10:21:08;17.00;97.90
13898;DHT22;7019;50.766;4.474;2023-04-15T10:23:35;16.80;97.50
13898;DHT22;7019;50.766;4.474;2023-04-15T10:26:03;16.90;96.60
13898;DHT22;7019;50.766;4.474;2023-04-15T10:28:31;16.50;96.20
13898;DHT22;7019;50.766;4.474;2023-04-15T10:30:58;16.20;97.70
13898;DHT22;7019;50.766;4.474;2023-04-15T10:33:27;16.20;98.50
13898;DHT22;7019;50.766;4.474;2023-04-15T10:35:55;16.60;99.90
13898;DHT22;7019;50.766;4.474;2023-04-15T10:38:32;16.60;98.70
13898;DHT22;7019;50.766;4.474;2023-04-15T10:41:13;16.70;98.10
13898;DHT22;7019;50.766;4.474;2023-04-15T10:43:46;16.70;97.10
13898;DHT22;7019;50.766;4.474;2023-04-15T10:46:17;16.50;97.30
13898;DHT22;7019;50.766;4.474;2023-04-15T10:48:51;16.70;96.10
13898;DHT22;7019;50.766;4.474;2023-04-15T10:51:27;16.90;98.10
13898;DHT22;7019;50.766;4.474;2023-04-15T10:53:59;17.10;97.40
13898;DHT22;7019;50.766;4.474;2023-04-15T10:56:28;17.40;97.70
13898;DHT22;7019;50.766;4.474;2023-04-15T10:58:57;17.80;97.70
13898;DHT22;7019;50.766;4.474;2023-04-15T11:01:53;17.90;96.40
13898;DHT22;7019;50.766;4.474;2023-04-15T11:04:57;17.30;96.60
13898;DHT22;7019;50.766;4.474;2023-04-15T11:07:38;16.60;97.20
13898;DHT22;7019;50.766;4.474;2023-04-15T11:13:27;16.40;94.10
13898;DHT22;7019;50.766;4.474;2023-04-15T11:16:00;16.40;94.40
13898;DHT22;7019;50.766;4.474;2023-04-15T11:18:29;16.40;94.50
13898;DHT22;7019;50.766;4.474;2023-04-15T11:21:03;16.70;94.10
13898;DHT22;7019;50.766;4.474;2023-04-15T11:23:32;16.90;93.60
13898;DHT22;7019;50.766;4.474;2023-04-15T11:26:00;17.10;93.70
13898;DHT22;7019;50.766;4.474;2023-04-15T11:28:31;17.00;92.40
13898;DHT22;7019;50.766;4.474;2023-04-15T11:31:02;16.90;93.20
13898;DHT22;7019;50.766;4.474;2023-04-15T11:33:31;16.70;92.70
13898;DHT22;7019;50.766;4.474;2023-04-15T11:36:00;16.80;92.90
13898;DHT22;7019;50.766;4.474;2023-04-15T11:38:28;17.00;93.50
13898;DHT22;7019;50.766;4.474;2023-04-15T11:40:56;17.20;92.80
13898;DHT22;7019;50.766;4.474;2023-04-15T11:43:23;17.20;92.20
13898;DHT22;7019;50.766;4.474;2023-04-15T11:45:52;16.80;89.70
13898;DHT22;7019;50.766;4.474;2023-04-15T11:48:22;16.80;90.90
13898;DHT22;7019;50.766;4.474;2023-04-15T11:50:53;16.50;89.20
13898;DHT22;7019;50.766;4.474;2023-04-15T11:53:22;16.50;90.50
13898;DHT22;7019;50.766;4.474;2023-04-15T11:55:51;16.60;91.00
13898;DHT22;7019;50.766;4.474;2023-04-15T11:58:20;16.60;91.10
13898;DHT22;7019;50.766;4.474;2023-04-15T12:00:50;16.50;92.10
13898;DHT22;7019;50.766;4.474;2023-04-15T12:03:23;16.70;92.60
13898;DHT22;7019;50.766;4.474;2023-04-15T12:06:18;16.80;93.90
13898;DHT22;7019;50.766;4.474;2023-04-15T12:09:06;17.10;94.10
13898;DHT22;7019;50.766;4.474;2023-04-15T12:11:44;17.30;92.00
13898;DHT22;7019;50.766;4.474;2023-04-15T12:14:25;16.80;87.70
13898;DHT22;7019;50.766;4.474;2023-04-15T12:16:53;16.80;89.90
13898;DHT22;7019;50.766;4.474;2023-04-15T12:19:25;17.10;88.20
13898;DHT22;7019;50.766;4.474;2023-04-15T12:21:57;17.20;85.30
13898;DHT22;7019;50.766;4.474;2023-04-15T12:24:26;17.20;81.50
13898;DHT22;7019;50.766;4.474;2023-04-15T12:26:54;16.90;81.10
13898;DHT22;7019;50.766;4.474;2023-04-15T12:29:24;16.60;84.20
13898;DHT22;7019;50.766;4.474;2023-04-15T12:31:53;16.80;87.40
13898;DHT22;7019;50.766;4.474;2023-04-15T12:34:26;17.10;88.90
13898;DHT22;7019;50.766;4.474;2023-04-15T12:36:54;17.60;90.70
13898;DHT22;7019;50.766;4.474;2023-04-15T12:39:22;17.90;90.50
13898;DHT22;7019;50.766;4.474;2023-04-15T12:41:51;17.70;87.50
13898;DHT22;7019;50.766;4.474;2023-04-15T12:44:19;17.40;84.90
13898;DHT22;7019;50.766;4.474;2023-04-15T12:46:46;17.50;87.30
13898;DHT22;7019;50.766;4.474;2023-04-15T12:49:13;17.60;88.80
13898;DHT22;7019;50.766;4.474;2023-04-15T12:51:41;17.60;84.70
13898;DHT22;7019;50.766;4.474;2023-04-15T12:54:08;17.20;84.10
13898;DHT22;7019;50.766;4.474;2023-04-15T12:56:35;16.80;87.30
13898;DHT22;7019;50.766;4.474;2023-04-15T12:59:03;17.10;90.30
13898;DHT22;7019;50.766;4.474;2023-04-15T13:01:31;17.50;88.80
13898;DHT22;7019;50.766;4.474;2023-04-15T13:03:58;17.90;88.20
13898;DHT22;7019;50.766;4.474;2023-04-15T13:06:25;18.00;87.90
13898;DHT22;7019;50.766;4.474;2023-04-15T13:08:53;17.70;90.30
13898;DHT22;7019;50.766;4.474;2023-04-15T13:11:21;17.90;90.40
13898;DHT22;7019;50.766;4.474;2023-04-15T13:13:48;17.70;91.10
13898;DHT22;7019;50.766;4.474;2023-04-15T13:16:18;17.50;90.10
13898;DHT22;7019;50.766;4.474;2023-04-15T13:18:46;17.40;87.80
13898;DHT22;7019;50.766;4.474;2023-04-15T13:21:13;17.20;83.30
13898;DHT22;7019;50.766;4.474;2023-04-15T13:23:41;17.30;84.20
13898;DHT22;7019;50.766;4.474;2023-04-15T13:26:08;17.10;81.20
13898;DHT22;7019;50.766;4.474;2023-04-15T13:28:35;16.80;83.40
13898;DHT22;7019;50.766;4.474;2023-04-15T13:31:03;17.10;83.80
13898;DHT22;7019;50.766;4.474;2023-04-15T13:33:32;17.10;81.70
13898;DHT22;7019;50.766;4.474;2023-04-15T13:35:59;17.10;80.90
13898;DHT22;7019;50.766;4.474;2023-04-15T13:38:26;17.20;84.40
13898;DHT22;7019;50.766;4.474;2023-04-15T13:40:53;17.40;84.50
13898;DHT22;7019;50.766;4.474;2023-04-15T13:43:20;17.90;86.80
13898;DHT22;7019;50.766;4.474;2023-04-15T13:45:48;17.90;86.80
13898;DHT22;7019;50.766;4.474;2023-04-15T13:48:15;17.90;88.30
13898;DHT22;7019;50.766;4.474;2023-04-15T13:50:44;18.20;87.80
13898;DHT22;7019;50.766;4.474;2023-04-15T13:53:11;18.00;84.30
13898;DHT22;7019;50.766;4.474;2023-04-15T13:55:38;18.00;85.80
13898;DHT22;7019;50.766;4.474;2023-04-15T13:58:07;17.80;87.00
13898;DHT22;7019;50.766;4.474;2023-04-15T14:00:34;17.80;89.50
13898;DHT22;7019;50.766;4.474;2023-04-15T14:03:01;18.30;90.70
13898;DHT22;7019;50.766;4.474;2023-04-15T14:05:28;18.50;90.70
13898;DHT22;7019;50.766;4.474;2023-04-15T14:07:58;18.50;89.50
13898;DHT22;7019;50.766;4.474;2023-04-15T14:10:25;18.10;90.90
13898;DHT22;7019;50.766;4.474;2023-04-15T14:12:52;18.20;90.60
13898;DHT22;7019;50.766;4.474;2023-04-15T14:15:19;18.40;91.90
13898;DHT22;7019;50.766;4.474;2023-04-15T14:17:46;18.30;90.60
13898;DHT22;7019;50.766;4.474;2023-04-15T14:20:13;18.10;90.60
13898;DHT22;7019;50.766;4.474;2023-04-15T14:22:40;17.80;89.80
13898;DHT22;7019;50.766;4.474;2023-04-15T14:25:09;17.70;88.20
13898;DHT22;7019;50.766;4.474;2023-04-15T14:27:36;17.60;87.00
13898;DHT22;7019;50.766;4.474;2023-04-15T14:30:04;17.50;90.00
13898;DHT22;7019;50.766;4.474;2023-04-15T14:32:31;17.60;90.30
13898;DHT22;7019;50.766;4.474;2023-04-15T14:34:58;17.50;90.10
13898;DHT22;7019;50.766;4.474;2023-04-15T14:37:26;16.70;90.70
13898;DHT22;7019;50.766;4.474;2023-04-15T14:39:53;16.40;91.10
13898;DHT22;7019;50.766;4.474;2023-04-15T14:42:22;16.30;91.10
13898;DHT22;7019;50.766;4.474;2023-04-15T14:44:49;16.60;90.80
13898;DHT22;7019;50.766;4.474;2023-04-15T14:47:16;16.90;89.30
13898;DHT22;7019;50.766;4.474;2023-04-15T14:49:43;16.50;86.80
13898;DHT22;7019;50.766;4.474;2023-04-15T14:52:10;16.40;88.30
13898;DHT22;7019;50.766;4.474;2023-04-15T14:54:37;16.40;85.10
13898;DHT22;7019;50.766;4.474;2023-04-15T14:57:04;16.30;85.70
13898;DHT22;7019;50.766;4.474;2023-04-15T14:59:34;16.20;87.50
13898;DHT22;7019;50.766;4.474;2023-04-15T15:02:01;16.20;90.10
13898;DHT22;7019;50.766;4.474;2023-04-15T15:04:28;16.30;90.30
13898;DHT22;7019;50.766;4.474;2023-04-15T15:06:57;16.20;90.50
13898;DHT22;7019;50.766;4.474;2023-04-15T15:09:25;16.00;91.00
13898;DHT22;7019;50.766;4.474;2023-04-15T15:11:52;16.10;91.70
13898;DHT22;7019;50.766;4.474;2023-04-15T15:14:19;16.10;91.70
13898;DHT22;7019;50.766;4.474;2023-04-15T15:16:48;16.30;93.10
13898;DHT22;7019;50.766;4.474;2023-04-15T15:19:15;16.40;92.10
13898;DHT22;7019;50.766;4.474;2023-04-15T15:21:43;16.10;92.70
13898;DHT22;7019;50.766;4.474;2023-04-15T15:24:10;16.10;93.90
13898;DHT22;7019;50.766;4.474;2023-04-15T15:26:38;16.00;94.50
13898;DHT22;7019;50.766;4.474;2023-04-15T15:29:05;15.90;95.40
13898;DHT22;7019;50.766;4.474;2023-04-15T15:31:33;15.60;94.40
13898;DHT22;7019;50.766;4.474;2023-04-15T15:34:02;15.40;95.00
13898;DHT22;7019;50.766;4.474;2023-04-15T15:36:29;15.20;96.00
13898;DHT22;7019;50.766;4.474;2023-04-15T15:38:57;15.00;96.10
13898;DHT22;7019;50.766;4.474;2023-04-15T15:41:24;14.90;96.40
13898;DHT22;7019;50.766;4.474;2023-04-15T15:43:52;14.70;97.10
13898;DHT22;7019;50.766;4.474;2023-04-15T15:46:19;14.60;97.20
13898;DHT22;7019;50.766;4.474;2023-04-15T15:48:48;14.60;97.10
13898;DHT22;7019;50.766;4.474;2023-04-15T15:51:17;14.80;98.30
13898;DHT22;7019;50.766;4.474;2023-04-15T15:53:44;15.00;97.60
13898;DHT22;7019;50.766;4.474;2023-04-15T15:56:11;15.20;97.00
13898;DHT22;7019;50.766;4.474;2023-04-15T15:58:38;15.30;97.20
13898;DHT22;7019;50.766;4.474;2023-04-15T16:01:06;15.60;97.00
13898;DHT22;7019;50.766;4.474;2023-04-15T16:03:33;15.80;96.60